sensor_id;sensor_type;location;lat;lon;timestamp;pressure;altitude;pressure_sealevel;temperature;humidity
75942;BME280;64622;46.220;19.878;2023-04-03T00:00:40;100241.97;;;6.01;100.00
75942;BME280;64622;46.220;19.878;2023-04-03T00:03:07;100243.53;;;6.03;100.00
75942;BME280;64622;46.220;19.878;2023-04-03T00:05:34;100246.19;;;6.03;100.00
75942;BME280;64622;46.220;19.878;2023-04-03T00:08:00;100250.66;;;6.03;100.00
75942;BME280;64622;46.220;19.878;2023-04-03T00:10:28;100241.44;;;6.07;100.00
75942;BME280;64622;46.220;19.878;2023-04-03T00:12:55;100242.09;;;5.99;100.00
75942;BME280;64622;46.220;19.878;2023-04-03T00:15:21;100247.28;;;6.01;100.00
75942;BME280;64622;46.220;19.878;2023-04-03T00:17:48;100246.44;;;6.00;100.00
75942;BME280;64622;46.220;19.878;2023-04-03T00:20:14;100246.84;;;5.96;100.00
75942;BME280;64622;46.220;19.878;2023-04-03T00:22:41;100247.28;;;6.01;100.00
75942;BME280;64622;46.220;19.878;2023-04-03T00:25:08;100241.25;;;5.98;100.00
75942;BME280;64622;46.220;19.878;2023-04-03T00:27:39;100251.78;;;6.09;100.00
75942;BME280;64622;46.220;19.878;2023-04-03T00:30:08;100239.34;;;6.10;100.00
75942;BME280;64622;46.220;19.878;2023-04-03T00:32:36;100253.94;;;6.16;100.00
75942;BME280;64622;46.220;19.878;2023-04-03T00:35:03;100258.00;;;6.19;100.00
75942;BME280;64622;46.220;19.878;2023-04-03T00:37:30;100250.97;;;6.09;100.00
75942;BME280;64622;46.220;19.878;2023-04-03T00:39:57;100261.50;;;6.20;100.00
75942;BME280;64622;46.220;19.878;2023-04-03T00:42:24;100253.53;;;6.20;100.00
75942;BME280;64622;46.220;19.878;2023-04-03T00:47:24;100251.34;;;6.34;100.00
75942;BME280;64622;46.220;19.878;2023-04-03T00:49:51;100245.91;;;6.36;100.00
75942;BME280;64622;46.220;19.878;2023-04-03T00:52:22;100254.06;;;6.44;100.00
75942;BME280;64622;46.220;19.878;2023-04-03T00:54:52;100247.81;;;6.54;100.00
75942;BME280;64622;46.220;19.878;2023-04-03T00:57:21;100246.38;;;6.81;100.00
75942;BME280;64622;46.220;19.878;2023-04-03T00:59:53;100255.91;;;7.02;100.00
75942;BME280;64622;46.220;19.878;2023-04-03T01:02:21;100243.34;;;7.04;100.00
75942;BME280;64622;46.220;19.878;2023-04-03T01:04:48;100255.22;;;7.09;100.00
75942;BME280;64622;46.220;19.878;2023-04-03T01:07:24;100259.44;;;7.12;100.00
75942;BME280;64622;46.220;19.878;2023-04-03T01:09:57;100254.66;;;7.06;100.00
75942;BME280;64622;46.220;19.878;2023-04-03T01:12:30;100259.59;;;7.11;100.00
75942;BME280;64622;46.220;19.878;2023-04-03T01:15:00;100256.50;;;7.06;100.00
75942;BME280;64622;46.220;19.878;2023-04-03T01:17:34;100256.34;;;7.07;100.00
75942;BME280;64622;46.220;19.878;2023-04-03T01:25:41;100268.66;;;6.98;100.00
75942;BME280;64622;46.220;19.878;2023-04-03T01:28:17;100279.44;;;6.97;100.00
75942;BME280;64622;46.220;19.878;2023-04-03T01:33:31;100282.94;;;6.97;100.00
75942;BME280;64622;46.220;19.878;2023-04-03T01:35:58;100269.47;;;6.89;100.00
75942;BME280;64622;46.220;19.878;2023-04-03T01:38:25;100275.66;;;6.90;100.00
75942;BME280;64622;46.220;19.878;2023-04-03T01:40:51;100284.91;;;6.96;100.00
75942;BME280;64622;46.220;19.878;2023-04-03T01:43:19;100287.25;;;6.89;100.00
75942;BME280;64622;46.220;19.878;2023-04-03T01:45:45;100291.72;;;6.88;100.00
75942;BME280;64622;46.220;19.878;2023-04-03T01:48:12;100288.63;;;6.83;100.00
75942;BME280;64622;46.220;19.878;2023-04-03T01:50:39;100270.81;;;6.74;100.00
75942;BME280;64622;46.220;19.878;2023-04-03T01:53:06;100275.69;;;6.69;100.00
75942;BME280;64622;46.220;19.878;2023-04-03T01:55:33;100278.78;;;6.65;100.00
75942;BME280;64622;46.220;19.878;2023-04-03T01:58:00;100278.03;;;6.53;100.00
75942;BME280;64622;46.220;19.878;2023-04-03T02:00:26;100287.13;;;6.51;100.00
75942;BME280;64622;46.220;19.878;2023-04-03T02:02:53;100268.84;;;6.37;100.00
75942;BME280;64622;46.220;19.878;2023-04-03T02:05:20;100295.59;;;6.36;100.00
75942;BME280;64622;46.220;19.878;2023-04-03T02:07:47;100291.31;;;6.23;100.00
75942;BME280;64622;46.220;19.878;2023-04-03T02:10:14;100285.63;;;6.07;100.00
75942;BME280;64622;46.220;19.878;2023-04-03T02:12:41;100283.69;;;5.89;100.00
75942;BME280;64622;46.220;19.878;2023-04-03T02:15:08;100296.12;;;5.88;100.00
75942;BME280;64622;46.220;19.878;2023-04-03T02:17:35;100293.75;;;5.86;100.00
75942;BME280;64622;46.220;19.878;2023-04-03T02:20:03;100288.88;;;5.79;100.00
75942;BME280;64622;46.220;19.878;2023-04-03T02:22:30;100293.12;;;5.82;100.00
75942;BME280;64622;46.220;19.878;2023-04-03T02:24:56;100281.91;;;5.78;100.00
75942;BME280;64622;46.220;19.878;2023-04-03T02:27:23;100297.84;;;5.78;100.00
75942;BME280;64622;46.220;19.878;2023-04-03T02:29:50;100300.50;;;5.78;100.00
75942;BME280;64622;46.220;19.878;2023-04-03T02:32:16;100284.50;;;5.69;100.00
75942;BME280;64622;46.220;19.878;2023-04-03T02:34:43;100288.25;;;5.66;100.00
75942;BME280;64622;46.220;19.878;2023-04-03T02:37:12;100288.72;;;5.71;100.00
75942;BME280;64622;46.220;19.878;2023-04-03T02:39:39;100301.41;;;5.68;100.00
75942;BME280;64622;46.220;19.878;2023-04-03T02:42:06;100292.97;;;5.63;100.00
75942;BME280;64622;46.220;19.878;2023-04-03T02:44:33;100293.94;;;5.62;100.00
75942;BME280;64622;46.220;19.878;2023-04-03T02:47:00;100301.53;;;5.66;100.00
75942;BME280;64622;46.220;19.878;2023-04-03T02:49:27;100303.22;;;5.67;100.00
75942;BME280;64622;46.220;19.878;2023-04-03T02:51:53;100291.56;;;5.59;100.00
75942;BME280;64622;46.220;19.878;2023-04-03T02:54:20;100297.03;;;5.67;100.00
75942;BME280;64622;46.220;19.878;2023-04-03T02:56:49;100293.56;;;5.66;100.00
75942;BME280;64622;46.220;19.878;2023-04-03T02:59:15;100303.22;;;5.67;100.00
75942;BME280;64622;46.220;19.878;2023-04-03T03:01:43;100300.56;;;5.67;100.00
75942;BME280;64622;46.220;19.878;2023-04-03T03:04:09;100294.37;;;5.67;100.00
75942;BME280;64622;46.220;19.878;2023-04-03T03:06:36;100293.28;;;5.69;100.00
75942;BME280;64622;46.220;19.878;2023-04-03T03:09:03;100285.53;;;5.77;100.00
75942;BME280;64622;46.220;19.878;2023-04-03T03:11:31;100296.25;;;5.87;100.00
75942;BME280;64622;46.220;19.878;2023-04-03T03:13:57;100303.41;;;5.87;100.00
75942;BME280;64622;46.220;19.878;2023-04-03T03:16:25;100287.34;;;5.88;99.80
75942;BME280;64622;46.220;19.878;2023-04-03T03:18:52;100304.81;;;5.91;100.00
75942;BME280;64622;46.220;19.878;2023-04-03T03:21:18;100309.84;;;5.93;99.42
75942;BME280;64622;46.220;19.878;2023-04-03T03:23:45;100309.97;;;5.92;99.92
75942;BME280;64622;46.220;19.878;2023-04-03T03:26:12;100315.44;;;5.91;99.76
75942;BME280;64622;46.220;19.878;2023-04-03T03:28:39;100312.63;;;5.92;98.35
75942;BME280;64622;46.220;19.878;2023-04-03T03:31:07;100315.16;;;5.93;98.51
75942;BME280;64622;46.220;19.878;2023-04-03T03:33:35;100325.09;;;5.92;99.34
75942;BME280;64622;46.220;19.878;2023-04-03T03:36:01;100321.59;;;5.91;99.73
75942;BME280;64622;46.220;19.878;2023-04-03T03:38:29;100309.69;;;5.86;99.41
75942;BME280;64622;46.220;19.878;2023-04-03T03:40:56;100315.56;;;5.89;99.05
75942;BME280;64622;46.220;19.878;2023-04-03T03:43:22;100303.28;;;5.88;97.65
75942;BME280;64622;46.220;19.878;2023-04-03T03:45:50;100306.50;;;5.92;96.40
75942;BME280;64622;46.220;19.878;2023-04-03T03:48:18;100311.81;;;5.92;96.26
75942;BME280;64622;46.220;19.878;2023-04-03T03:50:45;100323.72;;;5.97;95.41
75942;BME280;64622;46.220;19.878;2023-04-03T03:53:13;100328.00;;;5.88;95.48
75942;BME280;64622;46.220;19.878;2023-04-03T03:55:40;100320.03;;;5.88;94.97
75942;BME280;64622;46.220;19.878;2023-04-03T03:58:06;100332.22;;;5.91;93.61
75942;BME280;64622;46.220;19.878;2023-04-03T04:00:33;100327.41;;;5.85;94.27
75942;BME280;64622;46.220;19.878;2023-04-03T04:03:01;100338.25;;;5.93;92.28
75942;BME280;64622;46.220;19.878;2023-04-03T04:05:28;100340.19;;;5.91;92.40
75942;BME280;64622;46.220;19.878;2023-04-03T04:07:54;100325.63;;;5.86;92.34
75942;BME280;64622;46.220;19.878;2023-04-03T04:10:22;100336.81;;;5.89;91.46
75942;BME280;64622;46.220;19.878;2023-04-03T04:12:48;100335.97;;;5.88;89.94
75942;BME280;64622;46.220;19.878;2023-04-03T04:15:18;100342.13;;;5.89;88.79
75942;BME280;64622;46.220;19.878;2023-04-03T04:17:44;100349.66;;;5.84;90.35
75942;BME280;64622;46.220;19.878;2023-04-03T04:20:11;100352.41;;;5.82;89.85
75942;BME280;64622;46.220;19.878;2023-04-03T04:22:38;100350.84;;;5.80;90.28
75942;BME280;64622;46.220;19.878;2023-04-03T04:25:06;100357.12;;;5.79;90.45
75942;BME280;64622;46.220;19.878;2023-04-03T04:27:33;100359.69;;;5.81;90.69
75942;BME280;64622;46.220;19.878;2023-04-03T04:30:00;100356.38;;;5.77;91.63
75942;BME280;64622;46.220;19.878;2023-04-03T04:32:27;100370.50;;;5.77;91.42
75942;BME280;64622;46.220;19.878;2023-04-03T04:34:54;100358.72;;;5.70;91.33
75942;BME280;64622;46.220;19.878;2023-04-03T04:37:21;100375.13;;;5.75;92.42
75942;BME280;64622;46.220;19.878;2023-04-03T04:39:48;100362.22;;;5.71;92.81
75942;BME280;64622;46.220;19.878;2023-04-03T04:42:15;100360.41;;;5.71;93.51
75942;BME280;64622;46.220;19.878;2023-04-03T04:44:43;100369.34;;;5.70;94.81
75942;BME280;64622;46.220;19.878;2023-04-03T04:47:12;100374.78;;;5.69;94.83
75942;BME280;64622;46.220;19.878;2023-04-03T04:49:39;100372.94;;;5.69;94.48
75942;BME280;64622;46.220;19.878;2023-04-03T04:52:06;100379.97;;;5.70;94.62
75942;BME280;64622;46.220;19.878;2023-04-03T04:54:34;100389.97;;;5.78;94.10
75942;BME280;64622;46.220;19.878;2023-04-03T04:57:02;100393.34;;;5.80;94.13
75942;BME280;64622;46.220;19.878;2023-04-03T04:59:28;100386.69;;;5.74;94.36
75942;BME280;64622;46.220;19.878;2023-04-03T05:01:55;100397.69;;;5.81;94.63
75942;BME280;64622;46.220;19.878;2023-04-03T05:04:22;100396.22;;;5.77;95.04
75942;BME280;64622;46.220;19.878;2023-04-03T05:06:49;100410.00;;;5.82;95.17
75942;BME280;64622;46.220;19.878;2023-04-03T05:09:16;100399.72;;;5.77;94.59
75942;BME280;64622;46.220;19.878;2023-04-03T05:11:44;100412.41;;;5.85;94.49
75942;BME280;64622;46.220;19.878;2023-04-03T05:14:11;100405.88;;;5.78;94.52
75942;BME280;64622;46.220;19.878;2023-04-03T05:16:39;100410.59;;;5.86;94.77
75942;BME280;64622;46.220;19.878;2023-04-03T05:19:06;100419.41;;;5.86;94.46
75942;BME280;64622;46.220;19.878;2023-04-03T05:21:34;100416.16;;;5.82;94.11
75942;BME280;64622;46.220;19.878;2023-04-03T05:24:02;100410.59;;;5.86;94.64
75942;BME280;64622;46.220;19.878;2023-04-03T05:26:30;100405.66;;;5.81;92.93
75942;BME280;64622;46.220;19.878;2023-04-03T05:28:58;100418.88;;;5.92;93.44
75942;BME280;64622;46.220;19.878;2023-04-03T05:31:25;100410.91;;;5.92;94.06
75942;BME280;64622;46.220;19.878;2023-04-03T05:33:56;100425.75;;;6.06;93.93
75942;BME280;64622;46.220;19.878;2023-04-03T05:36:23;100424.75;;;6.07;93.51
75942;BME280;64622;46.220;19.878;2023-04-03T05:38:50;100421.00;;;6.09;93.29
75942;BME280;64622;46.220;19.878;2023-04-03T05:41:17;100417.38;;;6.10;92.62
75942;BME280;64622;46.220;19.878;2023-04-03T05:43:45;100415.31;;;6.13;94.15
75942;BME280;64622;46.220;19.878;2023-04-03T05:46:13;100413.75;;;6.11;91.79
75942;BME280;64622;46.220;19.878;2023-04-03T05:48:42;100406.34;;;6.14;91.31
75942;BME280;64622;46.220;19.878;2023-04-03T05:51:18;100415.69;;;6.09;90.35
75942;BME280;64622;46.220;19.878;2023-04-03T05:53:47;100427.25;;;6.19;90.64
75942;BME280;64622;46.220;19.878;2023-04-03T05:56:14;100438.34;;;6.24;90.22
75942;BME280;64622;46.220;19.878;2023-04-03T05:58:41;100440.81;;;6.37;90.34
75942;BME280;64622;46.220;19.878;2023-04-03T06:01:07;100441.19;;;6.32;89.77
75942;BME280;64622;46.220;19.878;2023-04-03T06:03:35;100448.50;;;6.39;89.59
75942;BME280;64622;46.220;19.878;2023-04-03T06:06:03;100459.03;;;6.41;89.27
75942;BME280;64622;46.220;19.878;2023-04-03T06:08:30;100449.50;;;6.38;87.86
75942;BME280;64622;46.220;19.878;2023-04-03T06:10:57;100442.50;;;6.58;89.23
75942;BME280;64622;46.220;19.878;2023-04-03T06:13:24;100449.56;;;6.68;88.98
75942;BME280;64622;46.220;19.878;2023-04-03T06:15:51;100451.22;;;6.69;87.53
75942;BME280;64622;46.220;19.878;2023-04-03T06:18:18;100449.44;;;6.70;87.36
75942;BME280;64622;46.220;19.878;2023-04-03T06:20:45;100456.56;;;6.90;87.64
75942;BME280;64622;46.220;19.878;2023-04-03T06:23:12;100445.38;;;6.96;86.39
75942;BME280;64622;46.220;19.878;2023-04-03T06:25:39;100445.81;;;7.01;86.93
75942;BME280;64622;46.220;19.878;2023-04-03T06:28:08;100446.78;;;7.30;87.56
75942;BME280;64622;46.220;19.878;2023-04-03T06:30:36;100446.78;;;7.21;85.94
75942;BME280;64622;46.220;19.878;2023-04-03T06:33:03;100455.22;;;7.35;86.28
75942;BME280;64622;46.220;19.878;2023-04-03T06:35:30;100444.25;;;7.28;85.16
75942;BME280;64622;46.220;19.878;2023-04-03T06:37:57;100463.34;;;7.33;85.27
75942;BME280;64622;46.220;19.878;2023-04-03T06:40:25;100460.09;;;7.30;85.39
75942;BME280;64622;46.220;19.878;2023-04-03T06:42:52;100441.81;;;7.46;86.02
75942;BME280;64622;46.220;19.878;2023-04-03T06:45:19;100450.94;;;7.53;84.98
75942;BME280;64622;46.220;19.878;2023-04-03T06:47:46;100449.53;;;7.49;84.45
75942;BME280;64622;46.220;19.878;2023-04-03T06:50:13;100464.28;;;7.53;84.25
75942;BME280;64622;46.220;19.878;2023-04-03T06:52:40;100471.59;;;7.61;85.34
75942;BME280;64622;46.220;19.878;2023-04-03T06:55:08;100467.69;;;7.74;85.65
75942;BME280;64622;46.220;19.878;2023-04-03T06:57:35;100458.19;;;7.42;84.90
75942;BME280;64622;46.220;19.878;2023-04-03T07:00:04;100466.88;;;7.43;85.99
75942;BME280;64622;46.220;19.878;2023-04-03T07:02:31;100466.28;;;7.31;85.71
75942;BME280;64622;46.220;19.878;2023-04-03T07:04:58;100468.94;;;7.31;87.00
75942;BME280;64622;46.220;19.878;2023-04-03T07:07:24;100478.53;;;7.52;88.02
75942;BME280;64622;46.220;19.878;2023-04-03T07:09:51;100467.59;;;7.46;88.87
75942;BME280;64622;46.220;19.878;2023-04-03T07:12:17;100471.72;;;7.59;88.70
75942;BME280;64622;46.220;19.878;2023-04-03T07:14:44;100474.09;;;7.62;87.64
75942;BME280;64622;46.220;19.878;2023-04-03T07:17:11;100470.03;;;7.68;88.31
75942;BME280;64622;46.220;19.878;2023-04-03T07:19:37;100473.00;;;7.74;86.55
75942;BME280;64622;46.220;19.878;2023-04-03T07:22:05;100472.59;;;7.78;86.63
75942;BME280;64622;46.220;19.878;2023-04-03T07:24:32;100471.09;;;7.95;85.87
75942;BME280;64622;46.220;19.878;2023-04-03T07:26:58;100487.06;;;8.04;85.19
75942;BME280;64622;46.220;19.878;2023-04-03T07:29:24;100487.50;;;8.09;85.69
75942;BME280;64622;46.220;19.878;2023-04-03T07:31:52;100483.66;;;8.33;84.47
75942;BME280;64622;46.220;19.878;2023-04-03T07:34:18;100490.06;;;8.21;83.39
75942;BME280;64622;46.220;19.878;2023-04-03T07:36:44;100486.84;;;8.65;83.01
75942;BME280;64622;46.220;19.878;2023-04-03T07:39:11;100489.09;;;8.79;81.39
75942;BME280;64622;46.220;19.878;2023-04-03T07:41:38;100486.16;;;9.28;80.06
75942;BME280;64622;46.220;19.878;2023-04-03T07:44:05;100497.34;;;9.95;76.62
75942;BME280;64622;46.220;19.878;2023-04-03T07:46:32;100475.16;;;10.64;71.60
75942;BME280;64622;46.220;19.878;2023-04-03T07:48:58;100496.22;;;10.24;73.08
75942;BME280;64622;46.220;19.878;2023-04-03T07:51:25;100509.25;;;9.83;73.61
75942;BME280;64622;46.220;19.878;2023-04-03T07:53:53;100513.66;;;9.74;72.28
75942;BME280;64622;46.220;19.878;2023-04-03T07:56:21;100509.97;;;10.12;71.62
75942;BME280;64622;46.220;19.878;2023-04-03T07:58:47;100513.22;;;10.06;69.66
75942;BME280;64622;46.220;19.878;2023-04-03T08:01:14;100520.28;;;10.07;70.45
75942;BME280;64622;46.220;19.878;2023-04-03T08:03:41;100523.03;;;10.15;68.95
75942;BME280;64622;46.220;19.878;2023-04-03T08:06:09;100506.69;;;10.35;68.36
75942;BME280;64622;46.220;19.878;2023-04-03T08:08:36;100500.75;;;10.84;65.79
75942;BME280;64622;46.220;19.878;2023-04-03T08:11:03;100513.88;;;11.38;63.94
75942;BME280;64622;46.220;19.878;2023-04-03T08:13:32;100520.28;;;10.77;63.85
75942;BME280;64622;46.220;19.878;2023-04-03T08:16:10;100515.00;;;10.32;65.16
75942;BME280;64622;46.220;19.878;2023-04-03T08:18:37;100512.03;;;11.39;64.90
75942;BME280;64622;46.220;19.878;2023-04-03T08:21:06;100504.87;;;11.22;64.48
75942;BME280;64622;46.220;19.878;2023-04-03T08:23:33;100522.25;;;11.35;64.83
75942;BME280;64622;46.220;19.878;2023-04-03T08:26:06;100506.75;;;10.61;63.82
75942;BME280;64622;46.220;19.878;2023-04-03T08:28:33;100508.97;;;10.83;65.64
75942;BME280;64622;46.220;19.878;2023-04-03T08:31:07;100522.56;;;10.72;65.62
75942;BME280;64622;46.220;19.878;2023-04-03T08:33:38;100516.88;;;10.05;65.05
75942;BME280;64622;46.220;19.878;2023-04-03T08:36:06;100520.66;;;10.47;64.89
75942;BME280;64622;46.220;19.878;2023-04-03T08:38:34;100509.94;;;10.82;63.97
75942;BME280;64622;46.220;19.878;2023-04-03T08:49:25;100523.91;;;11.36;61.88
75942;BME280;64622;46.220;19.878;2023-04-03T08:51:53;100524.94;;;10.92;62.17
75942;BME280;64622;46.220;19.878;2023-04-03T08:55:00;100526.50;;;11.20;62.39
75942;BME280;64622;46.220;19.878;2023-04-03T08:57:34;100528.25;;;10.86;62.65
75942;BME280;64622;46.220;19.878;2023-04-03T09:00:28;100522.66;;;10.80;63.21
75942;BME280;64622;46.220;19.878;2023-04-03T09:02:55;100530.78;;;10.70;61.95
75942;BME280;64622;46.220;19.878;2023-04-03T09:05:35;100525.78;;;11.18;62.13
75942;BME280;64622;46.220;19.878;2023-04-03T09:08:27;100531.78;;;11.97;62.22
75942;BME280;64622;46.220;19.878;2023-04-03T09:11:27;100522.66;;;11.82;60.49
75942;BME280;64622;46.220;19.878;2023-04-03T09:20:14;100515.31;;;12.41;60.71
75942;BME280;64622;46.220;19.878;2023-04-03T09:22:20;100507.59;;;12.46;59.16
75942;BME280;64622;46.220;19.878;2023-04-03T09:24:52;100506.75;;;11.80;60.93
75942;BME280;64622;46.220;19.878;2023-04-03T09:27:23;100500.94;;;11.59;61.14
75942;BME280;64622;46.220;19.878;2023-04-03T09:29:53;100508.94;;;11.51;61.37
75942;BME280;64622;46.220;19.878;2023-04-03T09:32:28;100506.00;;;11.62;61.41
75942;BME280;64622;46.220;19.878;2023-04-03T09:34:59;100517.69;;;11.28;62.67
75942;BME280;64622;46.220;19.878;2023-04-03T09:38:00;100515.56;;;11.14;62.16
75942;BME280;64622;46.220;19.878;2023-04-03T09:40:35;100505.75;;;11.89;61.53
75942;BME280;64622;46.220;19.878;2023-04-03T09:43:20;100510.25;;;11.81;61.62
75942;BME280;64622;46.220;19.878;2023-04-03T09:45:48;100501.03;;;12.25;62.17
75942;BME280;64622;46.220;19.878;2023-04-03T09:48:17;100478.41;;;12.35;61.22
75942;BME280;64622;46.220;19.878;2023-04-03T09:55:53;100496.09;;;12.04;60.97
75942;BME280;64622;46.220;19.878;2023-04-03T09:58:29;100488.09;;;11.71;60.63
75942;BME280;64622;46.220;19.878;2023-04-03T10:00:59;100490.16;;;12.42;60.21
75942;BME280;64622;46.220;19.878;2023-04-03T10:03:35;100492.13;;;12.16;59.44
75942;BME280;64622;46.220;19.878;2023-04-03T10:06:03;100492.69;;;12.44;60.61
75942;BME280;64622;46.220;19.878;2023-04-03T10:08:33;100476.56;;;12.44;60.11
75942;BME280;64622;46.220;19.878;2023-04-03T10:11:21;100481.94;;;12.52;61.21
75942;BME280;64622;46.220;19.878;2023-04-03T10:14:00;100467.66;;;12.83;58.84
75942;BME280;64622;46.220;19.878;2023-04-03T10:16:34;100458.94;;;12.89;56.45
75942;BME280;64622;46.220;19.878;2023-04-03T10:22:00;100459.41;;;14.10;54.10
75942;BME280;64622;46.220;19.878;2023-04-03T10:27:26;100468.84;;;12.49;52.45
75942;BME280;64622;46.220;19.878;2023-04-03T10:36:19;100485.31;;;13.72;50.29
75942;BME280;64622;46.220;19.878;2023-04-03T10:39:01;100471.78;;;13.50;49.30
75942;BME280;64622;46.220;19.878;2023-04-03T10:49:55;100460.28;;;12.53;49.38
75942;BME280;64622;46.220;19.878;2023-04-03T10:52:45;100447.31;;;13.13;50.17
75942;BME280;64622;46.220;19.878;2023-04-03T10:55:24;100460.84;;;13.51;48.45
75942;BME280;64622;46.220;19.878;2023-04-03T10:57:58;100457.75;;;12.92;49.92
75942;BME280;64622;46.220;19.878;2023-04-03T11:00:36;100448.69;;;12.21;49.53
75942;BME280;64622;46.220;19.878;2023-04-03T11:03:11;100458.72;;;12.11;50.46
75942;BME280;64622;46.220;19.878;2023-04-03T11:05:47;100463.56;;;11.99;51.87
75942;BME280;64622;46.220;19.878;2023-04-03T11:10:56;100451.41;;;12.53;52.08
75942;BME280;64622;46.220;19.878;2023-04-03T11:13:38;100458.28;;;12.63;53.15
75942;BME280;64622;46.220;19.878;2023-04-03T11:16:05;100446.53;;;12.96;50.29
75942;BME280;64622;46.220;19.878;2023-04-03T11:18:43;100449.75;;;14.15;48.74
75942;BME280;64622;46.220;19.878;2023-04-03T11:21:19;100455.97;;;13.55;49.40
75942;BME280;64622;46.220;19.878;2023-04-03T11:23:47;100443.53;;;12.35;52.12
75942;BME280;64622;46.220;19.878;2023-04-03T11:26:20;100454.03;;;13.25;51.76
75942;BME280;64622;46.220;19.878;2023-04-03T11:29:06;100443.00;;;12.72;51.81
75942;BME280;64622;46.220;19.878;2023-04-03T11:34:42;100430.25;;;12.42;51.21
75942;BME280;64622;46.220;19.878;2023-04-03T11:39:48;100440.53;;;13.79;50.38
75942;BME280;64622;46.220;19.878;2023-04-03T11:42:33;100428.62;;;13.35;51.33
75942;BME280;64622;46.220;19.878;2023-04-03T11:58:32;100431.38;;;13.96;50.23
75942;BME280;64622;46.220;19.878;2023-04-03T12:01:09;100415.66;;;12.68;51.96
75942;BME280;64622;46.220;19.878;2023-04-03T12:21:16;100422.28;;;13.97;47.88
75942;BME280;64622;46.220;19.878;2023-04-03T12:24:01;100424.50;;;14.47;46.87
75942;BME280;64622;46.220;19.878;2023-04-03T12:29:54;100392.53;;;13.30;47.60
75942;BME280;64622;46.220;19.878;2023-04-03T12:32:42;100405.31;;;13.97;47.77
75942;BME280;64622;46.220;19.878;2023-04-03T12:45:25;100410.78;;;13.81;46.80
75942;BME280;64622;46.220;19.878;2023-04-03T12:47:55;100381.25;;;14.18;45.45
75942;BME280;64622;46.220;19.878;2023-04-03T12:50:32;100400.97;;;14.41;45.90
75942;BME280;64622;46.220;19.878;2023-04-03T12:53:04;100398.03;;;15.02;46.25
75942;BME280;64622;46.220;19.878;2023-04-03T12:55:32;100390.16;;;14.49;46.18
75942;BME280;64622;46.220;19.878;2023-04-03T12:58:24;100394.88;;;14.24;44.92
75942;BME280;64622;46.220;19.878;2023-04-03T13:01:04;100393.31;;;14.07;45.52
75942;BME280;64622;46.220;19.878;2023-04-03T13:03:38;100380.59;;;15.12;44.23
75942;BME280;64622;46.220;19.878;2023-04-03T13:06:05;100398.03;;;14.50;46.96
75942;BME280;64622;46.220;19.878;2023-04-03T13:08:33;100384.62;;;13.67;48.04
75942;BME280;64622;46.220;19.878;2023-04-03T13:11:03;100393.97;;;13.48;49.96
75942;BME280;64622;46.220;19.878;2023-04-03T13:13:32;100385.59;;;12.81;50.40
75942;BME280;64622;46.220;19.878;2023-04-03T13:15:59;100377.56;;;12.41;50.64
75942;BME280;64622;46.220;19.878;2023-04-03T13:18:32;100383.09;;;12.63;51.19
75942;BME280;64622;46.220;19.878;2023-04-03T13:21:06;100376.03;;;12.54;51.20
75942;BME280;64622;46.220;19.878;2023-04-03T13:23:36;100384.25;;;12.85;50.90
75942;BME280;64622;46.220;19.878;2023-04-03T13:26:06;100369.69;;;12.15;50.34
75942;BME280;64622;46.220;19.878;2023-04-03T13:28:33;100355.22;;;11.84;50.82
75942;BME280;64622;46.220;19.878;2023-04-03T13:31:17;100356.38;;;11.66;52.13
75942;BME280;64622;46.220;19.878;2023-04-03T13:36:20;100375.38;;;12.04;51.24
75942;BME280;64622;46.220;19.878;2023-04-03T13:39:20;100366.34;;;12.45;51.23
75942;BME280;64622;46.220;19.878;2023-04-03T13:41:50;100351.91;;;12.22;50.76
75942;BME280;64622;46.220;19.878;2023-04-03T13:46:51;100354.72;;;11.73;53.77
75942;BME280;64622;46.220;19.878;2023-04-03T13:49:33;100357.88;;;11.60;52.09
75942;BME280;64622;46.220;19.878;2023-04-03T13:52:20;100349.37;;;11.97;51.19
75942;BME280;64622;46.220;19.878;2023-04-03T13:54:56;100352.25;;;12.11;50.95
75942;BME280;64622;46.220;19.878;2023-04-03T13:57:23;100339.66;;;11.80;53.06
75942;BME280;64622;46.220;19.878;2023-04-03T13:59:51;100348.91;;;11.44;54.14
75942;BME280;64622;46.220;19.878;2023-04-03T14:02:33;100340.53;;;10.97;53.91
75942;BME280;64622;46.220;19.878;2023-04-03T14:05:01;100327.53;;;11.10;55.05
75942;BME280;64622;46.220;19.878;2023-04-03T14:07:30;100338.34;;;10.93;53.82
75942;BME280;64622;46.220;19.878;2023-04-03T14:09:57;100335.53;;;11.02;54.16
75942;BME280;64622;46.220;19.878;2023-04-03T14:12:31;100346.91;;;11.38;52.85
75942;BME280;64622;46.220;19.878;2023-04-03T14:15:16;100348.53;;;11.72;52.04
75942;BME280;64622;46.220;19.878;2023-04-03T14:17:43;100329.78;;;11.80;53.01
75942;BME280;64622;46.220;19.878;2023-04-03T14:20:23;100330.50;;;13.01;50.29
75942;BME280;64622;46.220;19.878;2023-04-03T14:22:51;100331.94;;;12.01;51.25
75942;BME280;64622;46.220;19.878;2023-04-03T14:25:19;100327.44;;;11.28;52.66
75942;BME280;64622;46.220;19.878;2023-04-03T14:27:48;100332.81;;;10.94;53.80
75942;BME280;64622;46.220;19.878;2023-04-03T14:30:31;100346.97;;;10.79;55.36
75942;BME280;64622;46.220;19.878;2023-04-03T14:32:59;100347.66;;;10.55;55.97
75942;BME280;64622;46.220;19.878;2023-04-03T14:35:28;100348.03;;;10.60;56.69
75942;BME280;64622;46.220;19.878;2023-04-03T14:37:55;100349.19;;;10.58;56.40
75942;BME280;64622;46.220;19.878;2023-04-03T14:40:25;100350.16;;;10.82;57.39
75942;BME280;64622;46.220;19.878;2023-04-03T14:42:53;100358.69;;;10.78;56.90
75942;BME280;64622;46.220;19.878;2023-04-03T14:45:22;100348.44;;;11.07;56.44